3 – eServices

Baggage tracing
Cargo tracing
Weather
  • METAR

    EFMA 221350Z AUTO 02012KT 320V050 CAVOK 11/01 Q1020

    EFTU 221350Z AUTO 36006KT 310V060 9999 SCT045 10/M01 Q1019

    EFHK 221350Z 33010KT 9999 FEW040 09/M00 Q1017 NOSIG

    ESSA 221350Z 06005KT 9999 SCT028 BKN035 08/04 Q1021 NOSIG

    ESSB 221350Z 07008KT 030V110 9999 BKN021 10/06 Q1020

  • TAF n/a

Flightradar24